<?xml version="1.0" encoding="UTF-8" standalone="no" ?>
<gpx xmlns="http://www.topografix.com/GPX/1/1" xmlns:xsi="http://www.w3.org/2001/XMLSchema-instance" xsi:schemaLocation="http://www.topografix.com/GPX/1/1 http://www.topografix.com/GPX/1/1/gpx.xsd" version="1.1" creator="VisuGPX - https://www.visugpx.com">
  <metadata>
    <name>Arche-Miracle</name>
  </metadata>
  <wpt lat="45.37108" lon="5.90495">
    <ele>1793.2</ele>
    <name><![CDATA[001]]></name>
    <desc><![CDATA[03-JUL-10]]></desc>
  </wpt>
  <wpt lat="45.3713" lon="5.90524">
    <ele>1771.3</ele>
    <name><![CDATA[002]]></name>
    <desc><![CDATA[03-JUL-10]]></desc>
  </wpt>
  <wpt lat="45.37124" lon="5.90473">
    <ele>1815.2</ele>
    <name><![CDATA[003]]></name>
    <desc><![CDATA[03-JUL-10]]></desc>
  </wpt>
  <wpt lat="45.37096" lon="5.90641">
    <ele>1595</ele>
    <name><![CDATA[004]]></name>
    <desc><![CDATA[03-JUL-10]]></desc>
  </wpt>
  <trk>
    <name><![CDATA[Arche-Miracle_1]]></name>
    <extensions>
      <line xmlns="http://www.topografix.com/GPX/gpx_style/0/2">
        <color>0000FF</color>
        <width>4</width>
      </line>
    </extensions>
    <trkseg>
      <trkpt lat="45.3559" lon="5.91871">
        <ele>1074.891357</ele>
        <time>2010-07-03T04:29:25Z</time>
      </trkpt>
      <trkpt lat="45.35589" lon="5.91862">
        <ele>1077.294678</ele>
        <time>2010-07-03T04:29:31Z</time>
      </trkpt>
      <trkpt lat="45.35587" lon="5.91856">
        <ele>1076.333252</ele>
        <time>2010-07-03T04:29:35Z</time>
      </trkpt>
      <trkpt lat="45.35585" lon="5.91839">
        <ele>1072.96875</ele>
        <time>2010-07-03T04:29:51Z</time>
      </trkpt>
      <trkpt lat="45.35585" lon="5.91833">
        <ele>1072.007324</ele>
        <time>2010-07-03T04:29:55Z</time>
      </trkpt>
      <trkpt lat="45.35585" lon="5.91823">
        <ele>1073.929932</ele>
        <time>2010-07-03T04:30:03Z</time>
      </trkpt>
      <trkpt lat="45.35589" lon="5.9181">
        <ele>1076.333252</ele>
        <time>2010-07-03T04:30:17Z</time>
      </trkpt>
      <trkpt lat="45.3559" lon="5.91799">
        <ele>1075.371826</ele>
        <time>2010-07-03T04:30:25Z</time>
      </trkpt>
      <trkpt lat="45.35587" lon="5.91788">
        <ele>1078.736572</ele>
        <time>2010-07-03T04:30:33Z</time>
      </trkpt>
      <trkpt lat="45.35587" lon="5.91781">
        <ele>1079.217041</ele>
        <time>2010-07-03T04:30:41Z</time>
      </trkpt>
      <trkpt lat="45.35588" lon="5.91758">
        <ele>1080.65918</ele>
        <time>2010-07-03T04:30:59Z</time>
      </trkpt>
      <trkpt lat="45.35588" lon="5.9175">
        <ele>1082.581787</ele>
        <time>2010-07-03T04:31:09Z</time>
      </trkpt>
      <trkpt lat="45.35585" lon="5.9174">
        <ele>1087.388428</ele>
        <time>2010-07-03T04:31:16Z</time>
      </trkpt>
      <trkpt lat="45.35581" lon="5.91734">
        <ele>1090.75293</ele>
        <time>2010-07-03T04:31:21Z</time>
      </trkpt>
      <trkpt lat="45.35576" lon="5.9173">
        <ele>1093.636963</ele>
        <time>2010-07-03T04:31:27Z</time>
      </trkpt>
      <trkpt lat="45.35573" lon="5.91718">
        <ele>1096.520996</ele>
        <time>2010-07-03T04:31:39Z</time>
      </trkpt>
      <trkpt lat="45.35574" lon="5.91708">
        <ele>1098.443359</ele>
        <time>2010-07-03T04:31:47Z</time>
      </trkpt>
      <trkpt lat="45.35581" lon="5.91702">
        <ele>1094.117676</ele>
        <time>2010-07-03T04:31:58Z</time>
      </trkpt>
      <trkpt lat="45.35586" lon="5.91698">
        <ele>1094.117676</ele>
        <time>2010-07-03T04:32:06Z</time>
      </trkpt>
      <trkpt lat="45.35591" lon="5.91693">
        <ele>1092.675781</ele>
        <time>2010-07-03T04:32:11Z</time>
      </trkpt>
      <trkpt lat="45.35598" lon="5.91682">
        <ele>1091.714355</ele>
        <time>2010-07-03T04:32:22Z</time>
      </trkpt>
      <trkpt lat="45.356" lon="5.91676">
        <ele>1092.675781</ele>
        <time>2010-07-03T04:32:28Z</time>
      </trkpt>
      <trkpt lat="45.35601" lon="5.91668">
        <ele>1094.598145</ele>
        <time>2010-07-03T04:32:33Z</time>
      </trkpt>
      <trkpt lat="45.35605" lon="5.91658">
        <ele>1096.520996</ele>
        <time>2010-07-03T04:32:42Z</time>
      </trkpt>
      <trkpt lat="45.35612" lon="5.91647">
        <ele>1103.730957</ele>
        <time>2010-07-03T04:32:53Z</time>
      </trkpt>
      <trkpt lat="45.35614" lon="5.9164">
        <ele>1107.576172</ele>
        <time>2010-07-03T04:32:59Z</time>
      </trkpt>
      <trkpt lat="45.35621" lon="5.91631">
        <ele>1107.095459</ele>
        <time>2010-07-03T04:33:09Z</time>
      </trkpt>
      <trkpt lat="45.35624" lon="5.91625">
        <ele>1106.614746</ele>
        <time>2010-07-03T04:33:15Z</time>
      </trkpt>
      <trkpt lat="45.35627" lon="5.9162">
        <ele>1106.614746</ele>
        <time>2010-07-03T04:33:21Z</time>
      </trkpt>
      <trkpt lat="45.35633" lon="5.91606">
        <ele>1109.979248</ele>
        <time>2010-07-03T04:33:33Z</time>
      </trkpt>
      <trkpt lat="45.35638" lon="5.91595">
        <ele>1110.459961</ele>
        <time>2010-07-03T04:33:43Z</time>
      </trkpt>
      <trkpt lat="45.35641" lon="5.91586">
        <ele>1114.305176</ele>
        <time>2010-07-03T04:33:52Z</time>
      </trkpt>
      <trkpt lat="45.35643" lon="5.91579">
        <ele>1115.747314</ele>
        <time>2010-07-03T04:33:58Z</time>
      </trkpt>
      <trkpt lat="45.35647" lon="5.91573">
        <ele>1117.669922</ele>
        <time>2010-07-03T04:34:05Z</time>
      </trkpt>
      <trkpt lat="45.35649" lon="5.91566">
        <ele>1121.034668</ele>
        <time>2010-07-03T04:34:11Z</time>
      </trkpt>
      <trkpt lat="45.35653" lon="5.9156">
        <ele>1122.476562</ele>
        <time>2010-07-03T04:34:17Z</time>
      </trkpt>
      <trkpt lat="45.35656" lon="5.91554">
        <ele>1122.957275</ele>
        <time>2010-07-03T04:34:24Z</time>
      </trkpt>
      <trkpt lat="45.35659" lon="5.91548">
        <ele>1123.918457</ele>
        <time>2010-07-03T04:34:31Z</time>
      </trkpt>
      <trkpt lat="45.35663" lon="5.91542">
        <ele>1125.841064</ele>
        <time>2010-07-03T04:34:38Z</time>
      </trkpt>
      <trkpt lat="45.3567" lon="5.91538">
        <ele>1129.205566</ele>
        <time>2010-07-03T04:34:45Z</time>
      </trkpt>
      <trkpt lat="45.35673" lon="5.91529">
        <ele>1131.128418</ele>
        <time>2010-07-03T04:34:54Z</time>
      </trkpt>
      <trkpt lat="45.35678" lon="5.91518">
        <ele>1126.321777</ele>
        <time>2010-07-03T04:35:05Z</time>
      </trkpt>
      <trkpt lat="45.35681" lon="5.91512">
        <ele>1128.244385</ele>
        <time>2010-07-03T04:35:11Z</time>
      </trkpt>
      <trkpt lat="45.35686" lon="5.91501">
        <ele>1133.051025</ele>
        <time>2010-07-03T04:35:21Z</time>
      </trkpt>
      <trkpt lat="45.35693" lon="5.91492">
        <ele>1139.780273</ele>
        <time>2010-07-03T04:35:33Z</time>
      </trkpt>
      <trkpt lat="45.35694" lon="5.91479">
        <ele>1146.028809</ele>
        <time>2010-07-03T04:35:45Z</time>
      </trkpt>
      <trkpt lat="45.35695" lon="5.91471">
        <ele>1145.548096</ele>
        <time>2010-07-03T04:35:52Z</time>
      </trkpt>
      <trkpt lat="45.35698" lon="5.91457">
        <ele>1146.98999</ele>
        <time>2010-07-03T04:36:04Z</time>
      </trkpt>
      <trkpt lat="45.35697" lon="5.91449">
        <ele>1149.874268</ele>
        <time>2010-07-03T04:36:10Z</time>
      </trkpt>
      <trkpt lat="45.35698" lon="5.91441">
        <ele>1152.758057</ele>
        <time>2010-07-03T04:36:16Z</time>
      </trkpt>
      <trkpt lat="45.35702" lon="5.91434">
        <ele>1154.200195</ele>
        <time>2010-07-03T04:36:23Z</time>
      </trkpt>
      <trkpt lat="45.35705" lon="5.91424">
        <ele>1158.525879</ele>
        <time>2010-07-03T04:36:34Z</time>
      </trkpt>
      <trkpt lat="45.3571" lon="5.91414">
        <ele>1167.177979</ele>
        <time>2010-07-03T04:36:46Z</time>
      </trkpt>
      <trkpt lat="45.35714" lon="5.91407">
        <ele>1168.619873</ele>
        <time>2010-07-03T04:36:55Z</time>
      </trkpt>
      <trkpt lat="45.35718" lon="5.91401">
        <ele>1171.503662</ele>
        <time>2010-07-03T04:37:02Z</time>
      </trkpt>
      <trkpt lat="45.35718" lon="5.91389">
        <ele>1170.061768</ele>
        <time>2010-07-03T04:37:13Z</time>
      </trkpt>
      <trkpt lat="45.35721" lon="5.91375">
        <ele>1169.100586</ele>
        <time>2010-07-03T04:37:26Z</time>
      </trkpt>
      <trkpt lat="45.35722" lon="5.91367">
        <ele>1166.697266</ele>
        <time>2010-07-03T04:37:33Z</time>
      </trkpt>
      <trkpt lat="45.35725" lon="5.91358">
        <ele>1164.293945</ele>
        <time>2010-07-03T04:37:41Z</time>
      </trkpt>
      <trkpt lat="45.35728" lon="5.9135">
        <ele>1166.216553</ele>
        <time>2010-07-03T04:37:50Z</time>
      </trkpt>
      <trkpt lat="45.3573" lon="5.91341">
        <ele>1169.581299</ele>
        <time>2010-07-03T04:37:58Z</time>
      </trkpt>
      <trkpt lat="45.35733" lon="5.91334">
        <ele>1171.503662</ele>
        <time>2010-07-03T04:38:06Z</time>
      </trkpt>
      <trkpt lat="45.35737" lon="5.91329">
        <ele>1178.713623</ele>
        <time>2010-07-03T04:38:21Z</time>
      </trkpt>
      <trkpt lat="45.35747" lon="5.91326">
        <ele>1179.194092</ele>
        <time>2010-07-03T04:38:36Z</time>
      </trkpt>
      <trkpt lat="45.35754" lon="5.91324">
        <ele>1176.791016</ele>
        <time>2010-07-03T04:38:43Z</time>
      </trkpt>
      <trkpt lat="45.35759" lon="5.91319">
        <ele>1177.271729</ele>
        <time>2010-07-03T04:38:50Z</time>
      </trkpt>
      <trkpt lat="45.35764" lon="5.91312">
        <ele>1182.078369</ele>
        <time>2010-07-03T04:38:59Z</time>
      </trkpt>
      <trkpt lat="45.35773" lon="5.91309">
        <ele>1186.404297</ele>
        <time>2010-07-03T04:39:09Z</time>
      </trkpt>
      <trkpt lat="45.3578" lon="5.91307">
        <ele>1184.481689</ele>
        <time>2010-07-03T04:39:15Z</time>
      </trkpt>
      <trkpt lat="45.35787" lon="5.91303">
        <ele>1188.326904</ele>
        <time>2010-07-03T04:39:22Z</time>
      </trkpt>
      <trkpt lat="45.35795" lon="5.91303">
        <ele>1187.365479</ele>
        <time>2010-07-03T04:39:27Z</time>
      </trkpt>
      <trkpt lat="45.35805" lon="5.913">
        <ele>1184.000977</ele>
        <time>2010-07-03T04:39:36Z</time>
      </trkpt>
      <trkpt lat="45.35811" lon="5.91298">
        <ele>1183.039551</ele>
        <time>2010-07-03T04:39:41Z</time>
      </trkpt>
      <trkpt lat="45.3582" lon="5.91292">
        <ele>1185.923584</ele>
        <time>2010-07-03T04:39:50Z</time>
      </trkpt>
      <trkpt lat="45.35823" lon="5.91285">
        <ele>1186.404297</ele>
        <time>2010-07-03T04:39:58Z</time>
      </trkpt>
      <trkpt lat="45.35826" lon="5.91279">
        <ele>1187.365479</ele>
        <time>2010-07-03T04:40:05Z</time>
      </trkpt>
      <trkpt lat="45.35832" lon="5.91278">
        <ele>1191.210693</ele>
        <time>2010-07-03T04:40:16Z</time>
      </trkpt>
      <trkpt lat="45.35835" lon="5.91273">
        <ele>1196.017578</ele>
        <time>2010-07-03T04:40:23Z</time>
      </trkpt>
      <trkpt lat="45.35841" lon="5.91266">
        <ele>1193.614014</ele>
        <time>2010-07-03T04:40:33Z</time>
      </trkpt>
      <trkpt lat="45.35849" lon="5.91259">
        <ele>1201.7854</ele>
        <time>2010-07-03T04:40:49Z</time>
      </trkpt>
      <trkpt lat="45.35854" lon="5.91254">
        <ele>1206.111084</ele>
        <time>2010-07-03T04:40:56Z</time>
      </trkpt>
      <trkpt lat="45.35866" lon="5.91242">
        <ele>1206.111084</ele>
        <time>2010-07-03T04:41:05Z</time>
      </trkpt>
      <trkpt lat="45.3587" lon="5.91237">
        <ele>1205.630615</ele>
        <time>2010-07-03T04:41:10Z</time>
      </trkpt>
      <trkpt lat="45.35878" lon="5.9123">
        <ele>1208.033936</ele>
        <time>2010-07-03T04:41:21Z</time>
      </trkpt>
      <trkpt lat="45.35895" lon="5.9122">
        <ele>1208.514404</ele>
        <time>2010-07-03T04:41:43Z</time>
      </trkpt>
      <trkpt lat="45.359" lon="5.91217">
        <ele>1210.437012</ele>
        <time>2010-07-03T04:41:48Z</time>
      </trkpt>
      <trkpt lat="45.35907" lon="5.9121">
        <ele>1218.608398</ele>
        <time>2010-07-03T04:41:57Z</time>
      </trkpt>
      <trkpt lat="45.35912" lon="5.91203">
        <ele>1224.856934</ele>
        <time>2010-07-03T04:42:07Z</time>
      </trkpt>
      <trkpt lat="45.35928" lon="5.91185">
        <ele>1224.376221</ele>
        <time>2010-07-03T04:42:29Z</time>
      </trkpt>
      <trkpt lat="45.35938" lon="5.91181">
        <ele>1225.818115</ele>
        <time>2010-07-03T04:42:42Z</time>
      </trkpt>
      <trkpt lat="45.35956" lon="5.91153">
        <ele>1224.376221</ele>
        <time>2010-07-03T04:43:18Z</time>
      </trkpt>
      <trkpt lat="45.35963" lon="5.91148">
        <ele>1226.298828</ele>
        <time>2010-07-03T04:43:29Z</time>
      </trkpt>
      <trkpt lat="45.35973" lon="5.91148">
        <ele>1231.105713</ele>
        <time>2010-07-03T04:43:38Z</time>
      </trkpt>
      <trkpt lat="45.3598" lon="5.91146">
        <ele>1232.547607</ele>
        <time>2010-07-03T04:43:44Z</time>
      </trkpt>
      <trkpt lat="45.35985" lon="5.91144">
        <ele>1237.834717</ele>
        <time>2010-07-03T04:43:50Z</time>
      </trkpt>
      <trkpt lat="45.35995" lon="5.91138">
        <ele>1241.679932</ele>
        <time>2010-07-03T04:44:03Z</time>
      </trkpt>
      <trkpt lat="45.36004" lon="5.91134">
        <ele>1237.834717</ele>
        <time>2010-07-03T04:44:15Z</time>
      </trkpt>
      <trkpt lat="45.3601" lon="5.91133">
        <ele>1240.718506</ele>
        <time>2010-07-03T04:44:21Z</time>
      </trkpt>
      <trkpt lat="45.36016" lon="5.91133">
        <ele>1242.641357</ele>
        <time>2010-07-03T04:44:27Z</time>
      </trkpt>
      <trkpt lat="45.36029" lon="5.91139">
        <ele>1249.851318</ele>
        <time>2010-07-03T04:44:54Z</time>
      </trkpt>
      <trkpt lat="45.36043" lon="5.91137">
        <ele>1249.370605</ele>
        <time>2010-07-03T04:45:17Z</time>
      </trkpt>
      <trkpt lat="45.36055" lon="5.91138">
        <ele>1256.099609</ele>
        <time>2010-07-03T04:45:33Z</time>
      </trkpt>
      <trkpt lat="45.36063" lon="5.91135">
        <ele>1255.619141</ele>
        <time>2010-07-03T04:45:39Z</time>
      </trkpt>
      <trkpt lat="45.36069" lon="5.91133">
        <ele>1254.177246</ele>
        <time>2010-07-03T04:45:44Z</time>
      </trkpt>
      <trkpt lat="45.36078" lon="5.91133">
        <ele>1252.254395</ele>
        <time>2010-07-03T04:45:51Z</time>
      </trkpt>
      <trkpt lat="45.36083" lon="5.91134">
        <ele>1252.735107</ele>
        <time>2010-07-03T04:45:55Z</time>
      </trkpt>
      <trkpt lat="45.36092" lon="5.91136">
        <ele>1255.138428</ele>
        <time>2010-07-03T04:46:05Z</time>
      </trkpt>
      <trkpt lat="45.36099" lon="5.91133">
        <ele>1256.580322</ele>
        <time>2010-07-03T04:46:13Z</time>
      </trkpt>
      <trkpt lat="45.36108" lon="5.91132">
        <ele>1254.657715</ele>
        <time>2010-07-03T04:46:21Z</time>
      </trkpt>
      <trkpt lat="45.36117" lon="5.91137">
        <ele>1256.099609</ele>
        <time>2010-07-03T04:46:29Z</time>
      </trkpt>
      <trkpt lat="45.36125" lon="5.91138">
        <ele>1263.309814</ele>
        <time>2010-07-03T04:46:41Z</time>
      </trkpt>
      <trkpt lat="45.36134" lon="5.91138">
        <ele>1266.674316</ele>
        <time>2010-07-03T04:46:52Z</time>
      </trkpt>
      <trkpt lat="45.36153" lon="5.91124">
        <ele>1271.000244</ele>
        <time>2010-07-03T04:47:20Z</time>
      </trkpt>
      <trkpt lat="45.3616" lon="5.91121">
        <ele>1276.287598</ele>
        <time>2010-07-03T04:47:37Z</time>
      </trkpt>
      <trkpt lat="45.36166" lon="5.91121">
        <ele>1277.729492</ele>
        <time>2010-07-03T04:47:43Z</time>
      </trkpt>
      <trkpt lat="45.36172" lon="5.91122">
        <ele>1276.287598</ele>
        <time>2010-07-03T04:47:48Z</time>
      </trkpt>
      <trkpt lat="45.36177" lon="5.9112">
        <ele>1277.249023</ele>
        <time>2010-07-03T04:47:53Z</time>
      </trkpt>
      <trkpt lat="45.36185" lon="5.91117">
        <ele>1275.806641</ele>
        <time>2010-07-03T04:48:00Z</time>
      </trkpt>
      <trkpt lat="45.36194" lon="5.91118">
        <ele>1277.729492</ele>
        <time>2010-07-03T04:48:09Z</time>
      </trkpt>
      <trkpt lat="45.36199" lon="5.91118">
        <ele>1279.6521</ele>
        <time>2010-07-03T04:48:14Z</time>
      </trkpt>
      <trkpt lat="45.36209" lon="5.91116">
        <ele>1284.45874</ele>
        <time>2010-07-03T04:48:24Z</time>
      </trkpt>
      <trkpt lat="45.36222" lon="5.91114">
        <ele>1287.342529</ele>
        <time>2010-07-03T04:48:36Z</time>
      </trkpt>
      <trkpt lat="45.36229" lon="5.91112">
        <ele>1290.707031</ele>
        <time>2010-07-03T04:48:45Z</time>
      </trkpt>
      <trkpt lat="45.36237" lon="5.91113">
        <ele>1291.668457</ele>
        <time>2010-07-03T04:48:52Z</time>
      </trkpt>
      <trkpt lat="45.36243" lon="5.91112">
        <ele>1293.110596</ele>
        <time>2010-07-03T04:48:59Z</time>
      </trkpt>
      <trkpt lat="45.36251" lon="5.91112">
        <ele>1293.591309</ele>
        <time>2010-07-03T04:49:06Z</time>
      </trkpt>
      <trkpt lat="45.36257" lon="5.91111">
        <ele>1293.110596</ele>
        <time>2010-07-03T04:49:12Z</time>
      </trkpt>
      <trkpt lat="45.36276" lon="5.91112">
        <ele>1293.110596</ele>
        <time>2010-07-03T04:49:31Z</time>
      </trkpt>
      <trkpt lat="45.36282" lon="5.91112">
        <ele>1292.630127</ele>
        <time>2010-07-03T04:49:36Z</time>
      </trkpt>
      <trkpt lat="45.36288" lon="5.91111">
        <ele>1291.668457</ele>
        <time>2010-07-03T04:49:41Z</time>
      </trkpt>
      <trkpt lat="45.36295" lon="5.91111">
        <ele>1293.110596</ele>
        <time>2010-07-03T04:49:48Z</time>
      </trkpt>
      <trkpt lat="45.36304" lon="5.91105">
        <ele>1295.033203</ele>
        <time>2010-07-03T04:49:58Z</time>
      </trkpt>
      <trkpt lat="45.36308" lon="5.91105">
        <ele>1298.397705</ele>
        <time>2010-07-03T04:50:03Z</time>
      </trkpt>
      <trkpt lat="45.36316" lon="5.91102">
        <ele>1301.281738</ele>
        <time>2010-07-03T04:50:13Z</time>
      </trkpt>
      <trkpt lat="45.36321" lon="5.911">
        <ele>1300.320557</ele>
        <time>2010-07-03T04:50:19Z</time>
      </trkpt>
      <trkpt lat="45.36334" lon="5.91093">
        <ele>1304.165771</ele>
        <time>2010-07-03T04:50:31Z</time>
      </trkpt>
      <trkpt lat="45.3634" lon="5.91091">
        <ele>1303.204346</ele>
        <time>2010-07-03T04:50:36Z</time>
      </trkpt>
      <trkpt lat="45.36346" lon="5.91086">
        <ele>1302.723633</ele>
        <time>2010-07-03T04:50:41Z</time>
      </trkpt>
      <trkpt lat="45.36353" lon="5.91084">
        <ele>1306.088135</ele>
        <time>2010-07-03T04:50:48Z</time>
      </trkpt>
      <trkpt lat="45.36359" lon="5.91085">
        <ele>1305.607666</ele>
        <time>2010-07-03T04:50:52Z</time>
      </trkpt>
      <trkpt lat="45.36372" lon="5.91086">
        <ele>1305.126953</ele>
        <time>2010-07-03T04:51:05Z</time>
      </trkpt>
      <trkpt lat="45.36381" lon="5.91085">
        <ele>1306.568848</ele>
        <time>2010-07-03T04:51:16Z</time>
      </trkpt>
      <trkpt lat="45.36388" lon="5.91083">
        <ele>1308.972412</ele>
        <time>2010-07-03T04:51:22Z</time>
      </trkpt>
      <trkpt lat="45.36395" lon="5.91078">
        <ele>1311.856445</ele>
        <time>2010-07-03T04:51:30Z</time>
      </trkpt>
      <trkpt lat="45.36402" lon="5.91075">
        <ele>1316.662842</ele>
        <time>2010-07-03T04:51:38Z</time>
      </trkpt>
      <trkpt lat="45.36406" lon="5.91071">
        <ele>1316.182129</ele>
        <time>2010-07-03T04:51:42Z</time>
      </trkpt>
      <trkpt lat="45.36412" lon="5.91063">
        <ele>1314.259521</ele>
        <time>2010-07-03T04:51:48Z</time>
      </trkpt>
      <trkpt lat="45.3642" lon="5.91053">
        <ele>1313.29834</ele>
        <time>2010-07-03T04:51:55Z</time>
      </trkpt>
      <trkpt lat="45.36425" lon="5.91036">
        <ele>1310.414307</ele>
        <time>2010-07-03T04:52:06Z</time>
      </trkpt>
      <trkpt lat="45.3643" lon="5.91027">
        <ele>1308.972412</ele>
        <time>2010-07-03T04:52:12Z</time>
      </trkpt>
      <trkpt lat="45.36434" lon="5.91021">
        <ele>1308.491699</ele>
        <time>2010-07-03T04:52:18Z</time>
      </trkpt>
      <trkpt lat="45.36444" lon="5.91013">
        <ele>1310.414307</ele>
        <time>2010-07-03T04:52:29Z</time>
      </trkpt>
      <trkpt lat="45.36454" lon="5.91005">
        <ele>1315.220947</ele>
        <time>2010-07-03T04:52:39Z</time>
      </trkpt>
      <trkpt lat="45.36458" lon="5.91">
        <ele>1316.662842</ele>
        <time>2010-07-03T04:52:43Z</time>
      </trkpt>
      <trkpt lat="45.36464" lon="5.90998">
        <ele>1320.508057</ele>
        <time>2010-07-03T04:52:48Z</time>
      </trkpt>
      <trkpt lat="45.36472" lon="5.90993">
        <ele>1323.872559</ele>
        <time>2010-07-03T04:52:55Z</time>
      </trkpt>
      <trkpt lat="45.36492" lon="5.90993">
        <ele>1328.679443</ele>
        <time>2010-07-03T04:53:12Z</time>
      </trkpt>
      <trkpt lat="45.36499" lon="5.91002">
        <ele>1327.237549</ele>
        <time>2010-07-03T04:53:20Z</time>
      </trkpt>
      <trkpt lat="45.36504" lon="5.91009">
        <ele>1325.79541</ele>
        <time>2010-07-03T04:53:26Z</time>
      </trkpt>
      <trkpt lat="45.36506" lon="5.91017">
        <ele>1331.082764</ele>
        <time>2010-07-03T04:53:34Z</time>
      </trkpt>
      <trkpt lat="45.3651" lon="5.91023">
        <ele>1332.524658</ele>
        <time>2010-07-03T04:53:40Z</time>
      </trkpt>
      <trkpt lat="45.36514" lon="5.91025">
        <ele>1333.966553</ele>
        <time>2010-07-03T04:53:45Z</time>
      </trkpt>
      <trkpt lat="45.36522" lon="5.91029">
        <ele>1338.29248</ele>
        <time>2010-07-03T04:53:54Z</time>
      </trkpt>
      <trkpt lat="45.3653" lon="5.91032">
        <ele>1338.29248</ele>
        <time>2010-07-03T04:54:01Z</time>
      </trkpt>
      <trkpt lat="45.36537" lon="5.91034">
        <ele>1339.253662</ele>
        <time>2010-07-03T04:54:09Z</time>
      </trkpt>
      <trkpt lat="45.36543" lon="5.91031">
        <ele>1338.773193</ele>
        <time>2010-07-03T04:54:15Z</time>
      </trkpt>
      <trkpt lat="45.3655" lon="5.91029">
        <ele>1336.850342</ele>
        <time>2010-07-03T04:54:20Z</time>
      </trkpt>
      <trkpt lat="45.36558" lon="5.9103">
        <ele>1339.253662</ele>
        <time>2010-07-03T04:54:26Z</time>
      </trkpt>
      <trkpt lat="45.36565" lon="5.91029">
        <ele>1339.253662</ele>
        <time>2010-07-03T04:54:31Z</time>
      </trkpt>
      <trkpt lat="45.36572" lon="5.91033">
        <ele>1341.657227</ele>
        <time>2010-07-03T04:54:41Z</time>
      </trkpt>
      <trkpt lat="45.36581" lon="5.91037">
        <ele>1340.215332</ele>
        <time>2010-07-03T04:54:47Z</time>
      </trkpt>
      <trkpt lat="45.36592" lon="5.91037">
        <ele>1337.811768</ele>
        <time>2010-07-03T04:54:53Z</time>
      </trkpt>
      <trkpt lat="45.36598" lon="5.91039">
        <ele>1338.773193</ele>
        <time>2010-07-03T04:54:59Z</time>
      </trkpt>
      <trkpt lat="45.36607" lon="5.91036">
        <ele>1335.88916</ele>
        <time>2010-07-03T04:55:05Z</time>
      </trkpt>
      <trkpt lat="45.36621" lon="5.91036">
        <ele>1335.408447</ele>
        <time>2010-07-03T04:55:15Z</time>
      </trkpt>
      <trkpt lat="45.36629" lon="5.91037">
        <ele>1334.927979</ele>
        <time>2010-07-03T04:55:20Z</time>
      </trkpt>
      <trkpt lat="45.36634" lon="5.91042">
        <ele>1338.29248</ele>
        <time>2010-07-03T04:55:25Z</time>
      </trkpt>
      <trkpt lat="45.36643" lon="5.91044">
        <ele>1340.215332</ele>
        <time>2010-07-03T04:55:35Z</time>
      </trkpt>
      <trkpt lat="45.36653" lon="5.91041">
        <ele>1338.773193</ele>
        <time>2010-07-03T04:55:42Z</time>
      </trkpt>
      <trkpt lat="45.36657" lon="5.91036">
        <ele>1337.331055</ele>
        <time>2010-07-03T04:55:46Z</time>
      </trkpt>
      <trkpt lat="45.36663" lon="5.91032">
        <ele>1337.331055</ele>
        <time>2010-07-03T04:55:51Z</time>
      </trkpt>
      <trkpt lat="45.36668" lon="5.9103">
        <ele>1339.253662</ele>
        <time>2010-07-03T04:55:56Z</time>
      </trkpt>
      <trkpt lat="45.36673" lon="5.9103">
        <ele>1343.099121</ele>
        <time>2010-07-03T04:56:01Z</time>
      </trkpt>
      <trkpt lat="45.36685" lon="5.9103">
        <ele>1341.657227</ele>
        <time>2010-07-03T04:56:06Z</time>
      </trkpt>
      <trkpt lat="45.36694" lon="5.91027">
        <ele>1342.618652</ele>
        <time>2010-07-03T04:56:12Z</time>
      </trkpt>
      <trkpt lat="45.367" lon="5.91027">
        <ele>1346.944336</ele>
        <time>2010-07-03T04:56:18Z</time>
      </trkpt>
      <trkpt lat="45.36716" lon="5.91029">
        <ele>1349.828369</ele>
        <time>2010-07-03T04:56:31Z</time>
      </trkpt>
      <trkpt lat="45.36723" lon="5.91026">
        <ele>1345.021729</ele>
        <time>2010-07-03T04:56:43Z</time>
      </trkpt>
      <trkpt lat="45.36737" lon="5.91019">
        <ele>1353.192871</ele>
        <time>2010-07-03T04:57:00Z</time>
      </trkpt>
      <trkpt lat="45.36748" lon="5.91015">
        <ele>1353.192871</ele>
        <time>2010-07-03T04:57:08Z</time>
      </trkpt>
      <trkpt lat="45.3676" lon="5.91015">
        <ele>1357.999756</ele>
        <time>2010-07-03T04:57:18Z</time>
      </trkpt>
      <trkpt lat="45.3677" lon="5.91013">
        <ele>1360.402832</ele>
        <time>2010-07-03T04:57:31Z</time>
      </trkpt>
      <trkpt lat="45.36777" lon="5.91016">
        <ele>1364.248047</ele>
        <time>2010-07-03T04:57:39Z</time>
      </trkpt>
      <trkpt lat="45.36783" lon="5.91015">
        <ele>1362.325439</ele>
        <time>2010-07-03T04:57:45Z</time>
      </trkpt>
      <trkpt lat="45.3679" lon="5.91014">
        <ele>1363.767334</ele>
        <time>2010-07-03T04:57:52Z</time>
      </trkpt>
      <trkpt lat="45.36796" lon="5.91015">
        <ele>1365.690186</ele>
        <time>2010-07-03T04:57:58Z</time>
      </trkpt>
      <trkpt lat="45.36805" lon="5.91016">
        <ele>1361.844971</ele>
        <time>2010-07-03T04:58:04Z</time>
      </trkpt>
      <trkpt lat="45.36811" lon="5.91019">
        <ele>1368.093262</ele>
        <time>2010-07-03T04:58:13Z</time>
      </trkpt>
      <trkpt lat="45.36821" lon="5.91015">
        <ele>1366.651367</ele>
        <time>2010-07-03T04:58:22Z</time>
      </trkpt>
      <trkpt lat="45.36829" lon="5.91014">
        <ele>1368.093262</ele>
        <time>2010-07-03T04:58:31Z</time>
      </trkpt>
      <trkpt lat="45.36836" lon="5.91013">
        <ele>1367.612549</ele>
        <time>2010-07-03T04:58:36Z</time>
      </trkpt>
      <trkpt lat="45.36841" lon="5.91011">
        <ele>1366.651367</ele>
        <time>2010-07-03T04:58:40Z</time>
      </trkpt>
      <trkpt lat="45.36848" lon="5.91012">
        <ele>1371.457764</ele>
        <time>2010-07-03T04:58:48Z</time>
      </trkpt>
      <trkpt lat="45.36857" lon="5.91009">
        <ele>1372.419434</ele>
        <time>2010-07-03T04:58:57Z</time>
      </trkpt>
      <trkpt lat="45.36865" lon="5.91006">
        <ele>1370.496582</ele>
        <time>2010-07-03T04:59:03Z</time>
      </trkpt>
      <trkpt lat="45.36872" lon="5.91006">
        <ele>1371.938477</ele>
        <time>2010-07-03T04:59:09Z</time>
      </trkpt>
      <trkpt lat="45.36879" lon="5.91007">
        <ele>1375.783936</ele>
        <time>2010-07-03T04:59:16Z</time>
      </trkpt>
      <trkpt lat="45.36881" lon="5.91015">
        <ele>1390.203857</ele>
        <time>2010-07-03T04:59:24Z</time>
      </trkpt>
      <trkpt lat="45.36922" lon="5.90996">
        <ele>1389.242432</ele>
        <time>2010-07-03T04:59:52Z</time>
      </trkpt>
      <trkpt lat="45.36934" lon="5.90993">
        <ele>1381.551758</ele>
        <time>2010-07-03T05:00:06Z</time>
      </trkpt>
      <trkpt lat="45.36943" lon="5.9099">
        <ele>1389.242432</ele>
        <time>2010-07-03T05:00:25Z</time>
      </trkpt>
      <trkpt lat="45.36918" lon="5.90991">
        <ele>1414.717285</ele>
        <time>2010-07-03T05:01:04Z</time>
      </trkpt>
      <trkpt lat="45.36914" lon="5.90977">
        <ele>1408.949463</ele>
        <time>2010-07-03T05:01:16Z</time>
      </trkpt>
      <trkpt lat="45.36908" lon="5.90972">
        <ele>1413.275391</ele>
        <time>2010-07-03T05:01:25Z</time>
      </trkpt>
      <trkpt lat="45.36899" lon="5.90963">
        <ele>1416.639893</ele>
        <time>2010-07-03T05:01:42Z</time>
      </trkpt>
      <trkpt lat="45.36895" lon="5.90958">
        <ele>1417.120605</ele>
        <time>2010-07-03T05:01:49Z</time>
      </trkpt>
      <trkpt lat="45.36896" lon="5.9095">
        <ele>1411.833496</ele>
        <time>2010-07-03T05:01:56Z</time>
      </trkpt>
      <trkpt lat="45.36893" lon="5.90943">
        <ele>1411.833496</ele>
        <time>2010-07-03T05:02:02Z</time>
      </trkpt>
      <trkpt lat="45.3689" lon="5.90937">
        <ele>1410.391357</ele>
        <time>2010-07-03T05:02:06Z</time>
      </trkpt>
      <trkpt lat="45.36886" lon="5.90927">
        <ele>1407.026855</ele>
        <time>2010-07-03T05:02:17Z</time>
      </trkpt>
      <trkpt lat="45.36877" lon="5.90929">
        <ele>1418.081787</ele>
        <time>2010-07-03T05:02:25Z</time>
      </trkpt>
      <trkpt lat="45.36871" lon="5.90925">
        <ele>1420.966064</ele>
        <time>2010-07-03T05:02:32Z</time>
      </trkpt>
      <trkpt lat="45.36864" lon="5.90924">
        <ele>1423.849854</ele>
        <time>2010-07-03T05:02:39Z</time>
      </trkpt>
      <trkpt lat="45.36855" lon="5.90919">
        <ele>1428.175781</ele>
        <time>2010-07-03T05:02:52Z</time>
      </trkpt>
      <trkpt lat="45.36843" lon="5.90905">
        <ele>1429.617676</ele>
        <time>2010-07-03T05:03:09Z</time>
      </trkpt>
      <trkpt lat="45.36836" lon="5.909">
        <ele>1433.462891</ele>
        <time>2010-07-03T05:03:17Z</time>
      </trkpt>
      <trkpt lat="45.3683" lon="5.90892">
        <ele>1434.424316</ele>
        <time>2010-07-03T05:03:28Z</time>
      </trkpt>
      <trkpt lat="45.36825" lon="5.90876">
        <ele>1430.579102</ele>
        <time>2010-07-03T05:03:41Z</time>
      </trkpt>
      <trkpt lat="45.36819" lon="5.90876">
        <ele>1436.347168</ele>
        <time>2010-07-03T05:03:47Z</time>
      </trkpt>
      <trkpt lat="45.36807" lon="5.90868">
        <ele>1442.595703</ele>
        <time>2010-07-03T05:04:01Z</time>
      </trkpt>
      <trkpt lat="45.36803" lon="5.90859">
        <ele>1445.960205</ele>
        <time>2010-07-03T05:04:25Z</time>
      </trkpt>
      <trkpt lat="45.36802" lon="5.90852">
        <ele>1442.595703</ele>
        <time>2010-07-03T05:04:39Z</time>
      </trkpt>
      <trkpt lat="45.36792" lon="5.90851">
        <ele>1444.037598</ele>
        <time>2010-07-03T05:05:04Z</time>
      </trkpt>
      <trkpt lat="45.36786" lon="5.90853">
        <ele>1446.440918</ele>
        <time>2010-07-03T05:05:10Z</time>
      </trkpt>
      <trkpt lat="45.36778" lon="5.90853">
        <ele>1447.882812</ele>
        <time>2010-07-03T05:05:18Z</time>
      </trkpt>
      <trkpt lat="45.36815" lon="5.90857">
        <ele>1434.424316</ele>
        <time>2010-07-03T05:05:53Z</time>
      </trkpt>
      <trkpt lat="45.36817" lon="5.90847">
        <ele>1442.11499</ele>
        <time>2010-07-03T05:06:25Z</time>
      </trkpt>
      <trkpt lat="45.36822" lon="5.90839">
        <ele>1443.556885</ele>
        <time>2010-07-03T05:06:48Z</time>
      </trkpt>
      <trkpt lat="45.36818" lon="5.90833">
        <ele>1443.556885</ele>
        <time>2010-07-03T05:06:59Z</time>
      </trkpt>
      <trkpt lat="45.36824" lon="5.90831">
        <ele>1450.766602</ele>
        <time>2010-07-03T05:07:12Z</time>
      </trkpt>
      <trkpt lat="45.36834" lon="5.90827">
        <ele>1454.612061</ele>
        <time>2010-07-03T05:07:30Z</time>
      </trkpt>
      <trkpt lat="45.36842" lon="5.90825">
        <ele>1460.860596</ele>
        <time>2010-07-03T05:07:54Z</time>
      </trkpt>
      <trkpt lat="45.36847" lon="5.90825">
        <ele>1466.628418</ele>
        <time>2010-07-03T05:08:07Z</time>
      </trkpt>
      <trkpt lat="45.36859" lon="5.90816">
        <ele>1473.838379</ele>
        <time>2010-07-03T05:08:42Z</time>
      </trkpt>
      <trkpt lat="45.36864" lon="5.90813">
        <ele>1473.35791</ele>
        <time>2010-07-03T05:08:51Z</time>
      </trkpt>
      <trkpt lat="45.36872" lon="5.90806">
        <ele>1472.396484</ele>
        <time>2010-07-03T05:09:02Z</time>
      </trkpt>
      <trkpt lat="45.3687" lon="5.908">
        <ele>1467.109131</ele>
        <time>2010-07-03T05:09:18Z</time>
      </trkpt>
      <trkpt lat="45.36879" lon="5.90797">
        <ele>1474.799805</ele>
        <time>2010-07-03T05:09:36Z</time>
      </trkpt>
      <trkpt lat="45.36886" lon="5.9079">
        <ele>1486.335693</ele>
        <time>2010-07-03T05:10:03Z</time>
      </trkpt>
      <trkpt lat="45.36893" lon="5.90785">
        <ele>1486.335693</ele>
        <time>2010-07-03T05:10:22Z</time>
      </trkpt>
      <trkpt lat="45.369" lon="5.90785">
        <ele>1488.258301</ele>
        <time>2010-07-03T05:10:38Z</time>
      </trkpt>
      <trkpt lat="45.36916" lon="5.90784">
        <ele>1487.777588</ele>
        <time>2010-07-03T05:11:03Z</time>
      </trkpt>
      <trkpt lat="45.36923" lon="5.9078">
        <ele>1482.970703</ele>
        <time>2010-07-03T05:11:16Z</time>
      </trkpt>
      <trkpt lat="45.3693" lon="5.90777">
        <ele>1488.739014</ele>
        <time>2010-07-03T05:11:35Z</time>
      </trkpt>
      <trkpt lat="45.36935" lon="5.90782">
        <ele>1502.197266</ele>
        <time>2010-07-03T05:12:10Z</time>
      </trkpt>
      <trkpt lat="45.3694" lon="5.90787">
        <ele>1501.236084</ele>
        <time>2010-07-03T05:12:17Z</time>
      </trkpt>
      <trkpt lat="45.36951" lon="5.90784">
        <ele>1510.849121</ele>
        <time>2010-07-03T05:12:49Z</time>
      </trkpt>
      <trkpt lat="45.36956" lon="5.90783">
        <ele>1507.003906</ele>
        <time>2010-07-03T05:12:56Z</time>
      </trkpt>
      <trkpt lat="45.36961" lon="5.90783">
        <ele>1507.965332</ele>
        <time>2010-07-03T05:13:04Z</time>
      </trkpt>
      <trkpt lat="45.36969" lon="5.90777">
        <ele>1507.484619</ele>
        <time>2010-07-03T05:13:09Z</time>
      </trkpt>
      <trkpt lat="45.36968" lon="5.90765">
        <ele>1514.694336</ele>
        <time>2010-07-03T05:13:48Z</time>
      </trkpt>
      <trkpt lat="45.36974" lon="5.90771">
        <ele>1514.213623</ele>
        <time>2010-07-03T05:14:01Z</time>
      </trkpt>
      <trkpt lat="45.36974" lon="5.90763">
        <ele>1532.479004</ele>
        <time>2010-07-03T05:14:28Z</time>
      </trkpt>
      <trkpt lat="45.36977" lon="5.90756">
        <ele>1532.479004</ele>
        <time>2010-07-03T05:14:34Z</time>
      </trkpt>
      <trkpt lat="45.36988" lon="5.90748">
        <ele>1530.075439</ele>
        <time>2010-07-03T05:14:46Z</time>
      </trkpt>
      <trkpt lat="45.36992" lon="5.90745">
        <ele>1529.114014</ele>
        <time>2010-07-03T05:14:51Z</time>
      </trkpt>
      <trkpt lat="45.36996" lon="5.90749">
        <ele>1530.075439</ele>
        <time>2010-07-03T05:14:56Z</time>
      </trkpt>
      <trkpt lat="45.37005" lon="5.90746">
        <ele>1542.572754</ele>
        <time>2010-07-03T05:15:40Z</time>
      </trkpt>
      <trkpt lat="45.37016" lon="5.90739">
        <ele>1535.843506</ele>
        <time>2010-07-03T05:15:50Z</time>
      </trkpt>
      <trkpt lat="45.37022" lon="5.90736">
        <ele>1532.959473</ele>
        <time>2010-07-03T05:15:55Z</time>
      </trkpt>
      <trkpt lat="45.37027" lon="5.90728">
        <ele>1528.152832</ele>
        <time>2010-07-03T05:16:07Z</time>
      </trkpt>
      <trkpt lat="45.37038" lon="5.90729">
        <ele>1528.152832</ele>
        <time>2010-07-03T05:16:26Z</time>
      </trkpt>
      <trkpt lat="45.37043" lon="5.90737">
        <ele>1529.114014</ele>
        <time>2010-07-03T05:16:50Z</time>
      </trkpt>
      <trkpt lat="45.37043" lon="5.90745">
        <ele>1530.556152</ele>
        <time>2010-07-03T05:17:09Z</time>
      </trkpt>
      <trkpt lat="45.37046" lon="5.9075">
        <ele>1532.479004</ele>
        <time>2010-07-03T05:17:27Z</time>
      </trkpt>
      <trkpt lat="45.37057" lon="5.90753">
        <ele>1531.036865</ele>
        <time>2010-07-03T05:17:43Z</time>
      </trkpt>
      <trkpt lat="45.37063" lon="5.90751">
        <ele>1526.710938</ele>
        <time>2010-07-03T05:18:01Z</time>
      </trkpt>
      <trkpt lat="45.3707" lon="5.90753">
        <ele>1530.075439</ele>
        <time>2010-07-03T05:18:12Z</time>
      </trkpt>
      <trkpt lat="45.37077" lon="5.90751">
        <ele>1550.743896</ele>
        <time>2010-07-03T05:18:54Z</time>
      </trkpt>
      <trkpt lat="45.37079" lon="5.90743">
        <ele>1548.340576</ele>
        <time>2010-07-03T05:19:10Z</time>
      </trkpt>
      <trkpt lat="45.37081" lon="5.90737">
        <ele>1541.130615</ele>
        <time>2010-07-03T05:19:22Z</time>
      </trkpt>
      <trkpt lat="45.37077" lon="5.90724">
        <ele>1535.843506</ele>
        <time>2010-07-03T05:19:43Z</time>
      </trkpt>
      <trkpt lat="45.37075" lon="5.90717">
        <ele>1529.114014</ele>
        <time>2010-07-03T05:19:58Z</time>
      </trkpt>
      <trkpt lat="45.37081" lon="5.90719">
        <ele>1546.898438</ele>
        <time>2010-07-03T05:20:43Z</time>
      </trkpt>
      <trkpt lat="45.37091" lon="5.90713">
        <ele>1556.511719</ele>
        <time>2010-07-03T05:21:08Z</time>
      </trkpt>
      <trkpt lat="45.37096" lon="5.90709">
        <ele>1555.550537</ele>
        <time>2010-07-03T05:21:16Z</time>
      </trkpt>
      <trkpt lat="45.37099" lon="5.907">
        <ele>1560.837646</ele>
        <time>2010-07-03T05:21:51Z</time>
      </trkpt>
      <trkpt lat="45.37101" lon="5.90692">
        <ele>1572.854248</ele>
        <time>2010-07-03T05:22:28Z</time>
      </trkpt>
      <trkpt lat="45.37104" lon="5.90675">
        <ele>1561.318359</ele>
        <time>2010-07-03T05:23:06Z</time>
      </trkpt>
      <trkpt lat="45.37094" lon="5.9068">
        <ele>1572.373535</ele>
        <time>2010-07-03T05:23:22Z</time>
      </trkpt>
      <trkpt lat="45.37096" lon="5.90672">
        <ele>1565.644531</ele>
        <time>2010-07-03T05:23:33Z</time>
      </trkpt>
      <trkpt lat="45.37102" lon="5.90665">
        <ele>1581.025635</ele>
        <time>2010-07-03T05:24:46Z</time>
      </trkpt>
      <trkpt lat="45.3711" lon="5.9066">
        <ele>1581.025635</ele>
        <time>2010-07-03T05:25:03Z</time>
      </trkpt>
      <trkpt lat="45.37115" lon="5.90663">
        <ele>1583.428711</ele>
        <time>2010-07-03T05:25:19Z</time>
      </trkpt>
      <trkpt lat="45.37121" lon="5.90663">
        <ele>1585.351318</ele>
        <time>2010-07-03T05:26:21Z</time>
      </trkpt>
      <trkpt lat="45.37128" lon="5.90663">
        <ele>1586.312744</ele>
        <time>2010-07-03T05:26:29Z</time>
      </trkpt>
      <trkpt lat="45.37131" lon="5.90657">
        <ele>1588.716064</ele>
        <time>2010-07-03T05:26:49Z</time>
      </trkpt>
      <trkpt lat="45.37119" lon="5.90658">
        <ele>1590.157959</ele>
        <time>2010-07-03T05:28:37Z</time>
      </trkpt>
      <trkpt lat="45.37107" lon="5.90654">
        <ele>1589.677246</ele>
        <time>2010-07-03T05:29:12Z</time>
      </trkpt>
      <trkpt lat="45.37103" lon="5.9065">
        <ele>1591.599854</ele>
        <time>2010-07-03T05:29:47Z</time>
      </trkpt>
      <trkpt lat="45.37108" lon="5.90646">
        <ele>1588.235352</ele>
        <time>2010-07-03T05:30:08Z</time>
      </trkpt>
      <trkpt lat="45.37113" lon="5.90643">
        <ele>1592.080566</ele>
        <time>2010-07-03T05:30:23Z</time>
      </trkpt>
      <trkpt lat="45.37118" lon="5.90644">
        <ele>1598.809814</ele>
        <time>2010-07-03T05:30:42Z</time>
      </trkpt>
      <trkpt lat="45.37126" lon="5.9064">
        <ele>1597.848633</ele>
        <time>2010-07-03T05:30:59Z</time>
      </trkpt>
      <trkpt lat="45.3713" lon="5.90635">
        <ele>1606.500244</ele>
        <time>2010-07-03T05:31:29Z</time>
      </trkpt>
      <trkpt lat="45.37133" lon="5.90629">
        <ele>1613.710205</ele>
        <time>2010-07-03T05:31:57Z</time>
      </trkpt>
      <trkpt lat="45.37135" lon="5.90623">
        <ele>1610.345459</ele>
        <time>2010-07-03T05:32:31Z</time>
      </trkpt>
      <trkpt lat="45.37135" lon="5.90616">
        <ele>1617.55542</ele>
        <time>2010-07-03T05:32:52Z</time>
      </trkpt>
      <trkpt lat="45.37128" lon="5.90615">
        <ele>1643.030273</ele>
        <time>2010-07-03T05:33:24Z</time>
      </trkpt>
      <trkpt lat="45.37129" lon="5.90608">
        <ele>1631.494629</ele>
        <time>2010-07-03T05:33:46Z</time>
      </trkpt>
      <trkpt lat="45.37136" lon="5.90607">
        <ele>1634.378662</ele>
        <time>2010-07-03T05:33:53Z</time>
      </trkpt>
      <trkpt lat="45.3713" lon="5.90622">
        <ele>1648.79834</ele>
        <time>2010-07-03T05:34:37Z</time>
      </trkpt>
      <trkpt lat="45.3714" lon="5.90634">
        <ele>1643.510986</ele>
        <time>2010-07-03T05:35:05Z</time>
      </trkpt>
      <trkpt lat="45.37147" lon="5.90635">
        <ele>1641.107666</ele>
        <time>2010-07-03T05:35:18Z</time>
      </trkpt>
      <trkpt lat="45.3715" lon="5.90627">
        <ele>1638.70459</ele>
        <time>2010-07-03T05:36:45Z</time>
      </trkpt>
      <trkpt lat="45.37152" lon="5.90621">
        <ele>1639.185059</ele>
        <time>2010-07-03T05:37:15Z</time>
      </trkpt>
      <trkpt lat="45.37155" lon="5.90614">
        <ele>1642.549805</ele>
        <time>2010-07-03T05:38:16Z</time>
      </trkpt>
      <trkpt lat="45.37159" lon="5.90608">
        <ele>1648.79834</ele>
        <time>2010-07-03T05:38:41Z</time>
      </trkpt>
      <trkpt lat="45.37155" lon="5.90605">
        <ele>1654.566162</ele>
        <time>2010-07-03T05:39:27Z</time>
      </trkpt>
      <trkpt lat="45.37151" lon="5.906">
        <ele>1653.124268</ele>
        <time>2010-07-03T05:40:20Z</time>
      </trkpt>
      <trkpt lat="45.37154" lon="5.90594">
        <ele>1650.720947</ele>
        <time>2010-07-03T05:40:50Z</time>
      </trkpt>
      <trkpt lat="45.37114" lon="5.90608">
        <ele>1679.079834</ele>
        <time>2010-07-03T05:42:12Z</time>
      </trkpt>
      <trkpt lat="45.37119" lon="5.90614">
        <ele>1672.831299</ele>
        <time>2010-07-03T05:42:23Z</time>
      </trkpt>
      <trkpt lat="45.37122" lon="5.90608">
        <ele>1663.69873</ele>
        <time>2010-07-03T05:42:41Z</time>
      </trkpt>
      <trkpt lat="45.37125" lon="5.90599">
        <ele>1662.256836</ele>
        <time>2010-07-03T05:42:50Z</time>
      </trkpt>
      <trkpt lat="45.37129" lon="5.90589">
        <ele>1654.085693</ele>
        <time>2010-07-03T05:42:57Z</time>
      </trkpt>
      <trkpt lat="45.37138" lon="5.90583">
        <ele>1647.356445</ele>
        <time>2010-07-03T05:43:14Z</time>
      </trkpt>
      <trkpt lat="45.37136" lon="5.90573">
        <ele>1651.20166</ele>
        <time>2010-07-03T05:43:50Z</time>
      </trkpt>
      <trkpt lat="45.37137" lon="5.90566">
        <ele>1648.317627</ele>
        <time>2010-07-03T05:43:54Z</time>
      </trkpt>
      <trkpt lat="45.37141" lon="5.90571">
        <ele>1656.008057</ele>
        <time>2010-07-03T05:44:30Z</time>
      </trkpt>
      <trkpt lat="45.37146" lon="5.90563">
        <ele>1674.273193</ele>
        <time>2010-07-03T05:48:05Z</time>
      </trkpt>
      <trkpt lat="45.37147" lon="5.90555">
        <ele>1672.350586</ele>
        <time>2010-07-03T05:48:19Z</time>
      </trkpt>
      <trkpt lat="45.3715" lon="5.90531">
        <ele>1663.69873</ele>
        <time>2010-07-03T05:48:58Z</time>
      </trkpt>
      <trkpt lat="45.37152" lon="5.90524">
        <ele>1660.334229</ele>
        <time>2010-07-03T05:49:04Z</time>
      </trkpt>
      <trkpt lat="45.37144" lon="5.9053">
        <ele>1669.466797</ele>
        <time>2010-07-03T05:49:21Z</time>
      </trkpt>
      <trkpt lat="45.37136" lon="5.90539">
        <ele>1710.322754</ele>
        <time>2010-07-03T05:49:56Z</time>
      </trkpt>
      <trkpt lat="45.37141" lon="5.9054">
        <ele>1714.167969</ele>
        <time>2010-07-03T05:50:10Z</time>
      </trkpt>
    </trkseg>
  </trk>
</gpx>